Sierra Vista, AZ

6:42 PM MST on January 26, 2015 (GMT -0700)
Pershing Plaza West | Change Station
CLOSE
Current Station
Personal Weather Station
Location: Fort Huachuca, AZ
Elevation: 4915 ft
Nearby Weather Stations

Elev 4915 ft 31.56 °N, 110.35 °W | Updated 4 seconds ago

Mostly Cloudy
Mostly Cloudy
57.0 °F
Feels Like 57.0 °F
N
3.1
Wind Variable Wind from SE
Gusts 3.8 mph

Today
High -- | Low -- °F
--% Chance of Precip.
Yesterday
High -- | Low -- °F
Precip. -- in
7:17 AM 5:50 PM
Waxing Crescent, 49% visible
Pressure 30.13 in
Visibility 10.0 miles
Clouds Scattered Clouds 7000 ft
Mostly Cloudy 8500 ft
Mostly Cloudy 16000 ft
Dew Point 28 °F
Humidity 33%
Rainfall 0.00 in
Snow Depth Not available.
UV 0 out of 12
Pollen 3.10 out of 12
Air Quality Not available.
Flu Activity Not available.
METAR KFHU 270055Z 18005KT 10SM SCT070 BKN085 BKN160 14/M03 A3019 RMK SLP201

More Conditions Fewer Conditions

Pressure 30.13 in
Visibility 10.0 miles
Clouds Scattered Clouds 7000 ft
Mostly Cloudy 8500 ft
Mostly Cloudy 16000 ft
Dew Point 28 °F
Humidity 33%
Rainfall 0.00 in
Snow Depth Not available.
UV 0 out of 12
Pollen 3.10 out of 12
Air Quality Not available.
Flu Activity Not available.
METAR KFHU 270055Z 18005KT 10SM SCT070 BKN085 BKN160 14/M03 A3019 RMK SLP201

More Conditions Fewer Conditions

Nowcast | as of 6:08 PM MST on January 26, 2015

Scattered showers will continue to shift north across Southeast Arizona this evening. The most widespread rainfall will be over the thono oodham nation into western Pima County. Rainfall amounts will generally tally less than 0.10 inches per hour.

×

10-Day Weather Forecast

Almanac

Astronomy

Jan. 26, 2015 Rise Set
Actual Time
Civil Twilight
Nautical Twilight
Astronomical Twilight
Moon
Length of Visible Light
Length of Day
Tomorrow will be .
, % of the Moon is Illuminated

Today's Extremes

State Highs State Lows

Community

WunderPhotos

Upload Photos

1,790,451 photos uploaded!

WunderBlogs® & News

Nearby

Air Quality

  Air Quality AQ Index Pollutant
Not available.

Snow Depth

Station Depth Elevation

Earthquake Activity

City Distance Mag. Time & Date
Minimum magnitude displayed is 2.5.

Coastal Water Temperatures

Place Temperature

Nearby Weather Stations